Accueil
METAR-TAF:

METAR-TAF

Aéroports :

Aéroport de Guernesey

Guernesey,

latitude: 49-26N, longitude: 002-36W, altitude: 102 m

Observation

Le bulletin a été fait il y a 31 minutes, à 06:50 UTC
Vent 5 kt de nord/nord-est
Température 6°C
Humidité 75%
Pression 1028 hPa
Visibilité 10 km ou plus
Quelques nuages à une hauteur de 2500 ft

METAR: EGJB 170650Z 03005KT 9999 FEW025 06/02 Q1028

Heure: 08:21 (07:21 UTC)

Prévision

Le bulletin a été fait il y a 2 heures et 26 minutes, à 04:55 UTC
Prévision valable du 17 à 06 UTC au 17 à 15 UTC
Vent 7 kt de nord-est
Visibilité 10 km ou plus
Quelques nuages à une hauteur de 2500 ft

TAF: EGJB 170455Z 1706/1715 05007KT 9999 FEW025

Observations et prévisions météorologiques de plus de 4000 aéroports (messages METAR et TAF).

Les stations disponibles sont représentées par des disques jaunes et rouges sur la carte.

Passer la souris dessus pour voir le nom de la station.

Cliquer dessus pour voir les observations et prévisions météorologiques.

Pour changer de carte: cliquez sur les boutons verts avec une croix noire pour zoomer, sur le bouton vert avec un tiret pour effectuer un zoom arrière, ou sur les flèches vertes pour les cartes adjacentes.


METAR-TAF: